createdAt,value
2022-09-04T00:00:14.128Z,97891.27
2022-09-04T00:03:21.119Z,97887.05
2022-09-04T00:05:56.808Z,97891.25
2022-09-04T00:08:48.380Z,97892.83
2022-09-04T00:11:49.638Z,97898.76
2022-09-04T00:14:25.357Z,97893.05
2022-09-04T00:17:28.782Z,97897.39
2022-09-04T00:20:04.423Z,97899.88
2022-09-04T00:23:01.628Z,97904.23
2022-09-04T00:25:40.953Z,97895.83
2022-09-04T00:28:26.063Z,97894.72
2022-09-04T00:31:08.216Z,97901.33
2022-09-04T00:34:02.426Z,97893.83
2022-09-04T00:36:31.355Z,97896.09
2022-09-04T00:39:04.668Z,97901.31
2022-09-04T00:41:52.503Z,97902.67
2022-09-04T00:44:52.562Z,97905.89
2022-09-04T00:47:43.307Z,97907.94
2022-09-04T00:50:50.222Z,97913.58
2022-09-04T00:53:37.720Z,97912.56
2022-09-04T00:56:31.439Z,97917.41
2022-09-04T00:59:27.017Z,97926.17
2022-09-04T01:02:00.070Z,97923.86
2022-09-04T01:04:47.456Z,97919.41
2022-09-04T01:07:49.771Z,97910.95
2022-09-04T01:10:59.465Z,97918.66
2022-09-04T01:14:12.621Z,97911.84
2022-09-04T01:17:28.830Z,97914.57
2022-09-04T01:20:35.730Z,97929.38
2022-09-04T01:23:32.645Z,97925.66
2022-09-04T01:26:50.074Z,97922.39
2022-09-04T01:29:39.543Z,97923.88
2022-09-04T01:32:55.542Z,97924.56
2022-09-04T01:35:32.155Z,97926.75
2022-09-04T01:38:33.037Z,97921.77
2022-09-04T01:41:46.946Z,97930.63
2022-09-04T01:44:23.462Z,97930.28
2022-09-04T01:47:15.661Z,97930.27
2022-09-04T01:49:51.799Z,97928.07
2022-09-04T01:52:59.668Z,97931.23
2022-09-04T01:55:50.497Z,97930.76
2022-09-04T01:58:42.899Z,97933.48
2022-09-04T02:01:27.810Z,97929.48
2022-09-04T02:04:15.093Z,97934.80
2022-09-04T02:06:58.314Z,97930.22
2022-09-04T02:09:54.112Z,97932.95
2022-09-04T02:12:44.836Z,97938.20
2022-09-04T02:15:25.616Z,97939.14
2022-09-04T02:18:29.703Z,97929.48
2022-09-04T02:21:11.889Z,97938.05
2022-09-04T02:24:18.590Z,97938.42
2022-09-04T02:27:01.933Z,97938.22
2022-09-04T02:30:04.487Z,97936.53
2022-09-04T02:32:40.303Z,97938.36
2022-09-04T02:35:31.136Z,97933.38
2022-09-04T02:38:22.924Z,97934.05
2022-09-04T02:41:14.173Z,97931.54
2022-09-04T02:44:02.421Z,97924.02
2022-09-04T02:47:04.641Z,97929.23
2022-09-04T02:49:48.000Z,97927.85
2022-09-04T02:52:37.854Z,97924.65
2022-09-04T02:55:23.535Z,97924.82
2022-09-04T02:58:25.605Z,97933.69
2022-09-04T03:01:14.408Z,97927.34
2022-09-04T03:04:12.128Z,97924.60
2022-09-04T03:07:14.319Z,97933.95
2022-09-04T03:09:50.253Z,97932.70
2022-09-04T03:12:41.117Z,97936.47
2022-09-04T03:15:34.193Z,97931.69
2022-09-04T03:18:28.334Z,97932.48
2022-09-04T03:21:16.720Z,97931.02
2022-09-04T03:23:49.559Z,97933.53
2022-09-04T03:26:44.756Z,97940.72
2022-09-04T03:29:22.400Z,97935.59
2022-09-04T03:32:19.777Z,97937.88
2022-09-04T03:35:04.955Z,97936.73
2022-09-04T03:38:05.836Z,97945.03
2022-09-04T03:41:08.047Z,97938.88
2022-09-04T03:43:54.003Z,97947.61
2022-09-04T03:46:33.150Z,97950.55
2022-09-04T03:49:24.700Z,97947.55
2022-09-04T03:52:20.864Z,97943.19
2022-09-04T03:55:30.244Z,97950.91
2022-09-04T03:58:28.723Z,97962.63
2022-09-04T04:01:05.330Z,97964.72
2022-09-04T04:03:57.928Z,97962.89
2022-09-04T04:06:37.487Z,97967.36
2022-09-04T04:09:42.451Z,97965.09
2022-09-04T04:12:51.465Z,97966.58
2022-09-04T04:15:36.457Z,97970.79
2022-09-04T04:18:11.325Z,97969.11
2022-09-04T04:21:26.175Z,97972.30
2022-09-04T04:24:19.077Z,97974.72
2022-09-04T04:27:28.783Z,97974.72
2022-09-04T04:30:09.509Z,97975.18
2022-09-04T04:33:16.472Z,97968.35
2022-09-04T04:36:05.142Z,97973.09
2022-09-04T04:38:50.296Z,97979.23
2022-09-04T04:42:05.791Z,97981.72
2022-09-04T04:45:19.268Z,97986.95
2022-09-04T04:48:09.208Z,97978.28
2022-09-04T04:51:17.449Z,97984.64
2022-09-04T04:54:15.032Z,97985.28
2022-09-04T04:57:09.998Z,97984.17
2022-09-04T04:59:55.452Z,97987.23
2022-09-04T05:02:51.230Z,97989.39
2022-09-04T05:05:41.244Z,97991.58
2022-09-04T05:08:41.343Z,97997.83
2022-09-04T05:11:41.943Z,97998.48
2022-09-04T05:14:42.686Z,97999.30
2022-09-04T05:17:53.851Z,98005.55
2022-09-04T05:20:32.967Z,98005.77
2022-09-04T05:23:28.991Z,98010.09
2022-09-04T05:26:12.182Z,98013.39
2022-09-04T05:28:54.159Z,98017.59
2022-09-04T05:31:45.255Z,98016.11
2022-09-04T05:34:30.504Z,98013.45
2022-09-04T05:37:11.335Z,98019.17
2022-09-04T05:40:09.072Z,98020.33
2022-09-04T05:43:05.996Z,98024.64
2022-09-04T05:46:09.172Z,98025.85
2022-09-04T05:49:16.353Z,98023.89
2022-09-04T05:52:22.501Z,98029.56
2022-09-04T05:55:13.707Z,98033.19
2022-09-04T05:58:11.256Z,98037.50
2022-09-04T06:01:00.453Z,98041.13
2022-09-04T06:03:53.208Z,98047.75
2022-09-04T06:07:04.575Z,98040.89
2022-09-04T06:10:06.095Z,98044.52
2022-09-04T06:12:54.300Z,98047.61
2022-09-04T06:15:47.039Z,98050.66
2022-09-04T06:18:23.277Z,98046.19
2022-09-04T06:21:28.450Z,98049.17
2022-09-04T06:24:26.399Z,98051.33
2022-09-04T06:30:17.381Z,98054.95
2022-09-04T06:33:20.354Z,98052.84
2022-09-04T06:36:24.153Z,98053.02
2022-09-04T06:39:19.515Z,98050.02
2022-09-04T06:42:13.263Z,98056.28
2022-09-04T06:45:09.389Z,98048.67
2022-09-04T06:47:48.165Z,98054.97
2022-09-04T06:50:51.565Z,98058.02
2022-09-04T06:53:50.788Z,98058.23
2022-09-04T06:56:39.094Z,98068.23
2022-09-04T06:59:28.567Z,98067.05
2022-09-04T07:02:20.006Z,98069.97
2022-09-04T07:05:05.733Z,98068.59
2022-09-04T07:08:12.601Z,98060.28
2022-09-04T07:11:12.672Z,98065.11
2022-09-04T07:17:21.215Z,98067.14
2022-09-04T07:20:39.623Z,98072.63
2022-09-04T07:23:44.154Z,98064.62
2022-09-04T07:26:37.451Z,98066.55
2022-09-04T07:29:37.235Z,98071.05
2022-09-04T07:32:14.830Z,98073.92
2022-09-04T07:34:50.934Z,98075.95
2022-09-04T07:37:59.403Z,98074.19
2022-09-04T07:40:41.214Z,98078.26
2022-09-04T07:43:46.569Z,98074.62
2022-09-04T07:46:28.553Z,98077.98
2022-09-04T07:49:19.541Z,98073.51
2022-09-04T07:51:56.521Z,98070.14
2022-09-04T07:54:38.450Z,98073.25
2022-09-04T07:57:31.379Z,98068.27
2022-09-04T08:00:08.224Z,98063.70
2022-09-04T08:02:56.958Z,98067.16
2022-09-04T08:05:36.061Z,98064.70
2022-09-04T08:08:47.888Z,98074.58
2022-09-04T08:11:40.878Z,98067.22
2022-09-04T08:14:42.019Z,98064.13
2022-09-04T08:17:58.702Z,98069.05
2022-09-04T08:21:10.180Z,98070.77
2022-09-04T08:23:58.435Z,98070.18
2022-09-04T08:27:04.685Z,98075.66
2022-09-04T08:29:49.515Z,98073.37
2022-09-04T08:32:46.725Z,98066.48
2022-09-04T08:35:32.549Z,98076.62
2022-09-04T08:38:22.656Z,98066.27
2022-09-04T08:41:31.073Z,98066.50
2022-09-04T08:44:28.001Z,98064.02
2022-09-04T08:47:22.330Z,98066.50
2022-09-04T08:50:27.194Z,98060.97
2022-09-04T08:53:09.219Z,98051.94
2022-09-04T08:55:51.145Z,98057.41
2022-09-04T08:58:35.810Z,98059.88
2022-09-04T09:01:47.246Z,98055.63
2022-09-04T09:04:26.698Z,98052.16
2022-09-04T09:07:21.101Z,98053.17
2022-09-04T09:10:03.443Z,98057.06
2022-09-04T09:13:12.294Z,98054.67
2022-09-04T09:16:03.305Z,98053.25
2022-09-04T09:18:40.988Z,98055.30
2022-09-04T09:21:14.142Z,98050.23
2022-09-04T09:24:26.940Z,98051.69
2022-09-04T09:27:22.818Z,98057.29
2022-09-04T09:30:18.177Z,98051.06
2022-09-04T09:33:15.253Z,98051.51
2022-09-04T09:36:24.930Z,98053.92
2022-09-04T09:39:31.146Z,98055.59
2022-09-04T09:42:20.886Z,98056.41
2022-09-04T09:45:18.210Z,98046.03
2022-09-04T09:48:03.258Z,98044.84
2022-09-04T09:51:03.524Z,98039.71
2022-09-04T09:53:39.862Z,98034.18
2022-09-04T09:56:38.227Z,98032.37
2022-09-04T09:59:28.330Z,98032.54
2022-09-04T10:02:27.471Z,98028.53
2022-09-04T10:05:40.166Z,98031.17
2022-09-04T10:09:05.000Z,98038.14
2022-09-04T10:11:55.815Z,98033.00
2022-09-04T10:14:56.477Z,98029.24
2022-09-04T10:17:55.476Z,98033.38
2022-09-04T10:20:40.372Z,98033.20
2022-09-04T10:23:55.157Z,98040.91
2022-09-04T10:26:50.923Z,98032.02
2022-09-04T10:29:42.287Z,98033.59
2022-09-04T10:32:31.326Z,98035.75
2022-09-04T10:35:27.293Z,98034.95
2022-09-04T10:38:12.077Z,98036.09
2022-09-04T10:41:27.524Z,98037.66
2022-09-04T10:44:06.316Z,98036.09
2022-09-04T10:46:57.672Z,98031.70
2022-09-04T10:50:05.579Z,98038.77
2022-09-04T10:53:02.439Z,98028.05
2022-09-04T10:55:53.872Z,98025.86
2022-09-04T10:58:41.001Z,98027.48
2022-09-04T11:01:41.339Z,98034.86
2022-09-04T11:04:43.932Z,98030.11
2022-09-04T11:08:11.001Z,98030.11
2022-09-04T11:11:03.582Z,98028.23
2022-09-04T11:14:04.057Z,98023.86
2022-09-04T11:17:20.091Z,98037.23
2022-09-04T11:20:18.247Z,98034.36
2022-09-04T11:23:14.125Z,98027.67
2022-09-04T11:26:32.914Z,98024.83
2022-09-04T11:29:40.085Z,98018.00
2022-09-04T11:32:30.595Z,98018.01
2022-09-04T11:35:13.453Z,98020.98
2022-09-04T11:38:04.644Z,98020.56
2022-09-04T11:41:15.148Z,98016.17
2022-09-04T11:43:54.373Z,98015.42
2022-09-04T11:47:07.244Z,98011.70
2022-09-04T11:49:43.156Z,98017.03
2022-09-04T11:52:41.797Z,98006.95
2022-09-04T11:55:40.143Z,98004.56
2022-09-04T11:58:13.395Z,98005.16
2022-09-04T12:01:00.018Z,98002.80
2022-09-04T12:03:33.218Z,98000.76
2022-09-04T12:06:18.894Z,97999.15
2022-09-04T12:09:11.749Z,97994.67
2022-09-04T12:12:23.394Z,98001.31
2022-09-04T12:14:56.340Z,98001.08
2022-09-04T12:17:46.921Z,98010.19
2022-09-04T12:20:37.901Z,98009.70
2022-09-04T12:23:30.750Z,97999.08
2022-09-04T12:26:27.738Z,97999.92
2022-09-04T12:29:09.607Z,97999.94
2022-09-04T12:31:46.280Z,98003.70
2022-09-04T12:34:51.874Z,97995.44
2022-09-04T12:37:36.420Z,97993.65
2022-09-04T12:40:26.189Z,98002.70
2022-09-04T12:43:16.004Z,97999.11
2022-09-04T12:46:08.502Z,97994.56
2022-09-04T12:49:18.206Z,97988.20
2022-09-04T12:51:51.126Z,97998.09
2022-09-04T12:54:53.473Z,97991.14
2022-09-04T12:57:47.460Z,97995.10
2022-09-04T13:00:18.086Z,97989.41
2022-09-04T13:03:20.419Z,97998.48
2022-09-04T13:06:01.408Z,97989.20
2022-09-04T13:08:56.015Z,97998.03
2022-09-04T13:11:54.862Z,97986.96
2022-09-04T13:15:11.036Z,97984.02
2022-09-04T13:18:03.632Z,97979.96
2022-09-04T13:20:48.494Z,97971.88
2022-09-04T13:23:55.362Z,97974.27
2022-09-04T13:26:45.911Z,97976.42
2022-09-04T13:29:24.847Z,97966.31
2022-09-04T13:32:03.534Z,97970.28
2022-09-04T13:35:07.102Z,97967.13
2022-09-04T13:37:55.645Z,97970.50
2022-09-04T13:40:40.687Z,97963.22
2022-09-04T13:43:46.064Z,97962.98
2022-09-04T13:46:21.151Z,97963.20
2022-09-04T13:48:56.960Z,97957.23
2022-09-04T13:51:32.492Z,97962.77
2022-09-04T13:54:24.199Z,97951.67
2022-09-04T13:57:01.652Z,97952.00
2022-09-04T13:59:29.529Z,97952.80
2022-09-04T14:02:02.089Z,97955.38
2022-09-04T14:04:43.108Z,97956.55
2022-09-04T14:07:18.645Z,97957.12
2022-09-04T14:09:49.670Z,97957.10
2022-09-04T14:13:02.371Z,97962.05
2022-09-04T14:15:51.038Z,97960.48
2022-09-04T14:18:27.468Z,97957.93
2022-09-04T14:21:01.134Z,97962.30
2022-09-04T14:23:46.802Z,97962.64
2022-09-04T14:26:47.512Z,97954.15
2022-09-04T14:29:22.898Z,97954.52
2022-09-04T14:32:05.328Z,97951.17
2022-09-04T14:34:48.798Z,97949.17
2022-09-04T14:37:29.634Z,97950.95
2022-09-04T14:40:11.608Z,97947.92
2022-09-04T14:42:55.875Z,97951.89
2022-09-04T14:45:30.883Z,97946.98
2022-09-04T14:48:03.899Z,97951.56
2022-09-04T14:50:36.617Z,97956.47
2022-09-04T14:53:07.708Z,97950.73
2022-09-04T14:55:46.348Z,97942.39
2022-09-04T14:58:24.957Z,97936.80
2022-09-04T15:01:00.852Z,97942.81
2022-09-04T15:03:39.859Z,97942.19
2022-09-04T15:06:16.234Z,97939.27
2022-09-04T15:08:45.446Z,97932.78
2022-09-04T15:11:32.182Z,97937.72
2022-09-04T15:14:11.873Z,97945.84
2022-09-04T15:16:50.157Z,97947.87
2022-09-04T15:19:49.954Z,97947.63
2022-09-04T15:22:36.905Z,97942.67
2022-09-04T15:26:00.420Z,97945.70
2022-09-04T15:28:40.963Z,97949.45
2022-09-04T15:31:16.256Z,97955.66
2022-09-04T15:33:46.488Z,97954.18
2022-09-04T15:36:22.363Z,97950.91
2022-09-04T15:38:57.685Z,97955.70
2022-09-04T15:41:49.415Z,97955.38
2022-09-04T15:44:29.734Z,97952.22
2022-09-04T15:47:19.926Z,97956.97
2022-09-04T15:49:58.054Z,97959.14
2022-09-04T15:52:59.555Z,97958.95
2022-09-04T15:55:31.451Z,97956.17
2022-09-04T15:58:19.456Z,97952.63
2022-09-04T16:01:08.662Z,97950.86
2022-09-04T16:03:44.748Z,97946.50
2022-09-04T16:06:32.655Z,97941.95
2022-09-04T16:09:08.376Z,97943.14
2022-09-04T16:11:44.441Z,97947.11
2022-09-04T16:14:25.114Z,97943.34
2022-09-04T16:16:59.484Z,97946.15
2022-09-04T16:19:52.354Z,97950.52
2022-09-04T16:22:51.182Z,97958.02
2022-09-04T16:25:30.284Z,97958.98
2022-09-04T16:28:09.857Z,97951.45
2022-09-04T16:30:47.767Z,97951.42
2022-09-04T16:33:35.130Z,97953.34
2022-09-04T16:36:10.899Z,97955.50
2022-09-04T16:39:13.822Z,97952.06
2022-09-04T16:41:56.595Z,97956.73
2022-09-04T16:44:50.943Z,97961.02
2022-09-04T16:47:43.461Z,97963.31
2022-09-04T16:50:25.466Z,97965.23
2022-09-04T16:53:17.082Z,97963.00
2022-09-04T16:55:54.414Z,97960.95
2022-09-04T16:58:55.706Z,97961.39
2022-09-04T17:01:46.475Z,97960.71
2022-09-04T17:04:19.640Z,97971.42
2022-09-04T17:07:14.159Z,97974.39
2022-09-04T17:10:05.207Z,97975.20
2022-09-04T17:13:17.446Z,97980.36
2022-09-04T17:16:02.519Z,97977.08
2022-09-04T17:18:31.861Z,97985.92
2022-09-04T17:26:31.182Z,97993.98
2022-09-04T17:29:09.385Z,97994.22
2022-09-04T17:29:19.380Z,98008.18
2022-09-04T17:29:52.311Z,98016.29
2022-09-04T17:37:44.051Z,98007.41
2022-09-04T17:40:38.612Z,98014.55
2022-09-04T17:40:54.774Z,98007.73
2022-09-04T17:41:36.382Z,98010.54
2022-09-04T17:44:03.787Z,98015.64
2022-09-04T17:46:41.113Z,98028.38
2022-09-04T17:49:22.009Z,98028.77
2022-09-04T17:51:58.040Z,98029.39
2022-09-04T17:54:32.815Z,98028.78
2022-09-04T17:57:11.905Z,98031.41
2022-09-04T18:00:00.220Z,98035.52
2022-09-04T18:02:41.814Z,98037.91
2022-09-04T18:05:14.850Z,98038.78
2022-09-04T18:08:07.290Z,98041.38
2022-09-04T18:10:36.081Z,98044.20
2022-09-04T18:13:38.048Z,98048.03
2022-09-04T18:16:19.795Z,98050.03
2022-09-04T18:19:14.548Z,98056.94
2022-09-04T18:22:26.149Z,98062.92
2022-09-04T18:24:38.267Z,98062.92
2022-09-04T18:27:17.070Z,98066.24
2022-09-04T18:37:06.202Z,98070.43
2022-09-04T18:37:41.407Z,98080.02
2022-09-04T18:39:09.320Z,98084.34
2022-09-04T18:50:20.769Z,98085.95
2022-09-04T18:50:28.628Z,98091.27
2022-09-04T18:50:52.397Z,98086.30
2022-09-04T18:51:12.544Z,98095.22
2022-09-04T18:53:20.781Z,98098.95
2022-09-04T18:55:59.255Z,98102.67
2022-09-04T18:58:53.552Z,98103.50
2022-09-04T19:01:44.375Z,98106.44
2022-09-04T19:04:46.890Z,98105.46
2022-09-04T19:07:46.051Z,98108.23
2022-09-04T19:10:35.362Z,98117.09
2022-09-04T19:13:11.536Z,98114.38
2022-09-04T19:16:03.226Z,98120.13
2022-09-04T19:18:38.265Z,98116.04
2022-09-04T19:21:15.182Z,98118.47
2022-09-04T19:23:54.501Z,98123.63
2022-09-04T19:26:37.177Z,98119.10
2022-09-04T19:29:18.851Z,98122.31
2022-09-04T19:32:01.323Z,98119.70
2022-09-04T19:34:45.851Z,98110.02
2022-09-04T19:41:02.841Z,98116.65
2022-09-04T19:46:02.354Z,98122.91
2022-09-04T19:46:15.050Z,98117.66
2022-09-04T19:46:29.350Z,98117.17
2022-09-04T19:52:13.253Z,98115.69
2022-09-04T19:53:36.175Z,98114.11
2022-09-04T19:55:25.247Z,98108.84
2022-09-04T19:57:53.702Z,98109.27
2022-09-04T20:00:43.040Z,98120.01
2022-09-04T20:03:04.538Z,98118.42
2022-09-04T20:05:34.999Z,98121.52
2022-09-04T20:08:16.171Z,98122.55
2022-09-04T20:11:10.597Z,98119.28
2022-09-04T20:13:47.811Z,98120.24
2022-09-04T20:16:48.294Z,98123.14
2022-09-04T20:19:29.058Z,98121.92
2022-09-04T20:22:13.553Z,98134.79
2022-09-04T20:25:02.165Z,98134.83
2022-09-04T20:27:45.457Z,98138.72
2022-09-04T20:30:21.864Z,98134.98
2022-09-04T20:33:06.183Z,98138.97
2022-09-04T20:35:54.545Z,98135.91
2022-09-04T20:38:32.033Z,98140.38
2022-09-04T20:41:08.345Z,98130.12
2022-09-04T20:44:10.689Z,98136.73
2022-09-04T20:52:37.645Z,98139.94
2022-09-04T20:52:48.683Z,98154.72
2022-09-04T20:53:06.289Z,98147.09
2022-09-04T20:55:35.891Z,98154.17
2022-09-04T21:03:09.049Z,98163.38
2022-09-04T21:03:22.136Z,98159.86
2022-09-04T21:03:57.412Z,98164.53
2022-09-04T21:06:37.877Z,98157.56
2022-09-04T21:09:55.139Z,98162.70
2022-09-04T21:12:29.521Z,98152.34
2022-09-04T21:15:35.053Z,98157.45
2022-09-04T21:18:33.979Z,98160.32
2022-09-04T21:21:44.024Z,98159.20
2022-09-04T21:24:45.812Z,98157.25
2022-09-04T21:27:37.054Z,98154.86
2022-09-04T21:30:55.290Z,98157.95
2022-09-04T21:33:36.458Z,98164.57
2022-09-04T21:36:29.110Z,98165.48
2022-09-04T21:39:33.016Z,98167.52
2022-09-04T21:42:17.215Z,98171.06
2022-09-04T21:45:15.680Z,98167.96
2022-09-04T21:47:48.818Z,98168.30
2022-09-04T21:50:42.864Z,98162.81
2022-09-04T21:53:45.479Z,98170.44
2022-09-04T22:02:26.112Z,98171.55
2022-09-04T22:02:35.359Z,98171.08
2022-09-04T22:02:45.672Z,98171.08
2022-09-04T22:05:10.381Z,98176.55
2022-09-04T22:13:00.077Z,98179.05
2022-09-04T22:13:43.194Z,98174.83
2022-09-04T22:14:03.244Z,98172.67
2022-09-04T22:16:55.044Z,98179.05
2022-09-04T22:19:57.344Z,98180.86
2022-09-04T22:22:48.713Z,98177.69
2022-09-04T22:25:40.720Z,98174.27
2022-09-04T22:28:36.760Z,98183.81
2022-09-04T22:31:26.756Z,98187.23
2022-09-04T22:34:22.542Z,98175.62
2022-09-04T22:37:10.282Z,98184.03
2022-09-04T22:40:08.614Z,98184.12
2022-09-04T22:43:14.030Z,98182.86
2022-09-04T22:46:02.631Z,98194.47
2022-09-04T22:48:47.913Z,98191.27
2022-09-04T22:51:54.814Z,98190.83
2022-09-04T22:55:23.073Z,98190.34
2022-09-04T22:57:58.665Z,98184.45
2022-09-04T23:00:26.381Z,98189.64
2022-09-04T23:03:14.566Z,98190.56
2022-09-04T23:05:54.228Z,98192.81
2022-09-04T23:13:48.780Z,98192.27
2022-09-04T23:13:54.632Z,98191.01
2022-09-04T23:14:49.349Z,98192.28
2022-09-04T23:17:34.261Z,98190.83
2022-09-04T23:26:33.491Z,98191.74
2022-09-04T23:26:49.987Z,98194.34
2022-09-04T23:27:00.788Z,98196.63
2022-09-04T23:29:21.488Z,98201.77
2022-09-04T23:32:21.604Z,98193.80
2022-09-04T23:35:42.720Z,98194.03
2022-09-04T23:39:18.752Z,98200.63
2022-09-04T23:42:30.843Z,98204.95
2022-09-04T23:46:02.288Z,98198.56
2022-09-04T23:49:23.233Z,98197.64
2022-09-04T23:52:49.021Z,98203.32
2022-09-04T23:55:59.843Z,98202.84
2022-09-04T23:59:27.359Z,98206.48
